Airfield :
LOGIN :

Register | Disclaimer

   EN    FR    IT 

 










Legend :    VFR   Marginal VFR   IFR   Intensive IFR   Very Intensive IFR
Visi :
Ceiling :
>= 8 km
>= 3000ft
5 to 8 km
1000 to 3000 ft
1500m to 5 km
500 to 1000 ft
800 to 1500m
200 to 500 ft
< 800m
< 200 ft
Symbols :   Thunderstorms  Fog  Heavy snow  Heavy precipitations  Wind > 20 kt
SIGMETs :     Misc.  Thunderstorms  Icing  Turbulence  Mountain Waves  Volcanic Ashes







- Airport Elevation : 645 ft
- IATA code : DLE
- Download approach charts


LFGJ - Dole Tavaux

CURRENT METAR :
  • 141830Z AUTO 22009KT 9999 FEW014 SCT020 BKN029 06/05 Q0999 TEMPO 25020G35KT SHRA FEW020CB BKN030

EXPIRED METARs :
  • 141800Z AUTO 23013KT 9999 RA FEW026/// BKN038/// BKN046/// ///TCU 06/06 Q1000 TEMPO 25020G35KT FEW020CB BKN030
  • 141730Z AUTO 23016KT 9999 SCT034/// BKN043/// OVC049/// ///TCU 07/05 Q0999 TEMPO 25020G35KT SHRA FEW020CB BKN030
  • 141700Z AUTO 22016KT 9999 -RA FEW016/// BKN040/// OVC052/// ///TCU 07/06 Q1000 TEMPO 25020G35KT SHRA FEW020CB BKN030
  • 141630Z AUTO 22014KT 8000 RA FEW019/// SCT025/// BKN033/// ///TCU 07/06 Q1000 TEMPO 25020G35KT FEW020CB BKN030
  • 141600Z AUTO 20012KT 9999 -RADZ FEW039/// SCT048/// BKN056/// ///TCU 07/06 Q1001 TEMPO 25020G35KT SHRA FEW020CB BKN030

TAF TAF LFGJ
Valid from the 14 at 15:00 until the 15 at 00:00 UTC


141401Z 1415/1424 21013G25KT 9999 SCT020 BKN035
TEMPO 1415/1422 25020G35KT 5000 SHRA FEW020CB BKN030
No reported NOTAMs for that airfield.
2 SIGMETs reported for the Reims FIR (LFEE) :
 
Severe turbulence
LFEE SIGMET 6 VALID 141700/142000 LFPW
LFEE REIMS FIR/UIR SEV TURB OBS AT 1700Z S OF N4800 FL160/300 STNR NC=
Severe turbulence
LFEE SIGMET 5 VALID 141800/142100 LFPW
LFEE REIMS FIR/UIR SEV TURB FCST WI N4815 E00800 - N4730 E00730 - N4630 E00615 - N4630 E00545 - N4715 E00530 - N4815 E00800 SFC/FL070 STNR INTSF=



MET'MAP, your aeronautical weather chart ! - Copyright ORBIFLY December 2007 - Disclaimer

ORBIFLY MET'MAP TEAM :

Programming & Development : Alexandra Zaïnal
Concept & Development : Baudouin d'Aumeries
Co-Development & Prog : Marc-Olivier Méhu
Technical & hardware support : Manuel Goepfert

Contact : metmap@orbifly.com




SOURCES & CREDITS :

   NOAA